Time;durP1;ratioP1;P1;durP2;ratioP2;P2;SDS_P1;SDS_P2;PMS_P1;PMS_P2;Temp;Humidity;BMP_temperature;BMP_pressure;BME280_temperature;BME280_humidity;BME280_pressure;Samples;Min_cycle;Max_cycle;Signal;HPM_P1;HPM_P2
2022/10/12 00:01:24;;;;;;;;;16.00;13.00;;;;;13.19;100.00;102082.97;5059206;28;47232;-71
2022/10/12 00:03:50;;;;;;;;;14.50;13.50;;;;;13.20;100.00;102081.22;5058572;28;59000;-70
2022/10/12 00:06:23;;;;;;;;;15.00;12.00;;;;;13.20;100.00;102081.22;5058596;28;51571;-71
2022/10/12 00:08:50;;;;;;;;;12.00;11.75;;;;;13.18;100.00;102093.56;5059167;28;45517;-71
2022/10/12 00:11:22;;;;;;;;;14.50;13.25;;;;;13.14;100.00;102078.44;5058940;28;46490;-72
2022/10/12 00:13:47;;;;;;;;;18.50;13.50;;;;;13.14;100.00;102076.69;5059030;28;45518;-71
2022/10/12 00:16:14;;;;;;;;;19.00;12.00;;;;;13.10;100.00;102073.09;5059723;28;45628;-71
2022/10/12 00:18:40;;;;;;;;;12.50;11.75;;;;;13.13;100.00;102076.66;5057748;28;45402;-71
2022/10/12 00:21:12;;;;;;;;;10.75;10.75;;;;;13.09;100.00;102065.09;5058894;28;50743;-72
2022/10/12 00:23:38;;;;;;;;;15.75;11.00;;;;;13.10;100.00;102078.41;5055095;28;45627;-71
2022/10/12 00:26:09;;;;;;;;;14.75;12.25;;;;;13.08;100.00;102080.09;5058023;28;45314;-71
2022/10/12 00:28:35;;;;;;;;;14.75;10.50;;;;;13.07;100.00;102083.63;5058755;28;45386;-71
2022/10/12 00:31:05;;;;;;;;;13.00;13.00;;;;;13.05;100.00;102077.41;5058628;28;45788;-71
2022/10/12 00:33:30;;;;;;;;;11.00;11.00;;;;;13.05;100.00;102084.47;5057637;28;45404;-71
2022/10/12 00:35:56;;;;;;;;;16.00;12.50;;;;;13.02;100.00;102076.44;5057827;28;60395;-71
2022/10/12 00:38:22;;;;;;;;;10.25;10.25;;;;;13.01;100.00;102085.25;5058850;28;45336;-71
2022/10/12 00:40:47;;;;;;;;;10.00;9.00;;;;;13.00;100.00;102080.81;5058014;28;54412;-72
2022/10/12 00:43:34;;;;;;;;;14.50;9.25;;;;;12.98;100.00;102088.72;5040698;28;45387;-71
2022/10/12 00:46:03;;;;;;;;;13.00;10.00;;;;;12.93;100.00;102085.09;5058354;28;45354;-71
2022/10/12 00:48:28;;;;;;;;;15.00;11.00;;;;;12.94;100.00;102089.50;5058031;28;45240;-70
2022/10/12 00:50:54;;;;;;;;;12.50;10.00;;;;;12.92;100.00;102082.41;5058366;28;45779;-71
2022/10/12 00:53:23;;;;;;;;;10.00;10.00;;;;;12.91;100.00;102084.16;5040547;28;45362;-71
2022/10/12 00:55:54;;;;;;;;;11.50;9.00;;;;;12.88;100.00;102075.25;5058591;28;45345;-71
2022/10/12 00:58:21;;;;;;;;;16.75;12.50;;;;;12.85;100.00;102081.38;5058763;28;45158;-72
2022/10/12 01:00:46;;;;;;;;;12.75;11.50;;;;;12.88;100.00;102084.09;5057291;28;63554;-71
2022/10/12 01:03:14;;;;;;;;;15.00;12.00;;;;;12.86;100.00;102080.53;5056842;28;50241;-70
2022/10/12 01:05:39;;;;;;;;;18.25;16.00;;;;;12.81;100.00;102074.22;5057284;28;45339;-70
2022/10/12 01:08:05;;;;;;;;;18.50;12.50;;;;;12.80;100.00;102073.34;5059022;28;45426;-71
2022/10/12 01:10:31;;;;;;;;;18.75;13.75;;;;;12.79;100.00;102068.00;5058145;28;45926;-70
2022/10/12 01:12:56;;;;;;;;;18.00;13.00;;;;;12.79;100.00;102065.34;5058752;28;45339;-72
2022/10/12 01:15:26;;;;;;;;;20.25;13.50;;;;;12.77;100.00;102059.09;5058319;28;45394;-71
2022/10/12 01:18:15;;;;;;;;;16.50;12.50;;;;;12.77;100.00;102073.25;5036925;28;45501;-70
2022/10/12 01:21:11;;;;;;;;;13.00;11.00;;;;;12.75;100.00;102068.78;5055288;28;46757;-71
2022/10/12 01:23:42;;;;;;;;;16.25;11.50;;;;;12.73;100.00;102066.13;5050121;28;45317;-71
2022/10/12 01:26:35;;;;;;;;;13.25;11.50;;;;;12.72;100.00;102074.00;5056688;28;45510;-71
2022/10/12 01:29:26;;;;;;;;;16.50;12.00;;;;;12.70;100.00;102067.78;5057040;28;47513;-72
2022/10/12 01:31:56;;;;;;;;;11.00;11.00;;;;;12.66;100.00;102064.19;5056509;28;45746;-71
2022/10/12 01:35:02;;;;;;;;;12.00;10.00;;;;;12.66;100.00;102064.19;5057696;28;45284;-71
2022/10/12 01:37:37;;;;;;;;;18.00;10.75;;;;;12.64;100.00;102076.50;5035444;28;45380;-71
2022/10/12 01:40:07;;;;;;;;;13.00;10.50;;;;;12.62;100.00;102078.22;5054555;28;45340;-71
2022/10/12 01:42:37;;;;;;;;;16.25;14.75;;;;;12.58;100.00;102061.38;5056208;28;46661;-71
2022/10/12 01:45:14;;;;;;;;;11.75;10.00;;;;;12.59;100.00;102065.78;5056129;28;45439;-72
2022/10/12 01:47:42;;;;;;;;;13.50;10.75;;;;;12.58;100.00;102066.66;5044338;28;45478;-71
2022/10/12 01:50:11;;;;;;;;;12.25;11.75;;;;;12.58;100.00;102065.78;5056571;28;45255;-71
2022/10/12 01:52:52;;;;;;;;;11.00;8.50;;;;;12.54;100.00;102062.16;5056656;28;46716;-71
2022/10/12 01:55:37;;;;;;;;;12.75;11.25;;;;;12.54;100.00;102062.16;5057473;28;45536;-70
2022/10/12 01:58:34;;;;;;;;;13.25;10.75;;;;;12.54;100.00;102067.44;5057455;28;45474;-71
2022/10/12 02:01:23;;;;;;;;;15.75;13.25;;;;;12.52;100.00;102061.22;5023997;28;45817;-72
2022/10/12 02:04:10;;;;;;;;;9.75;8.50;;;;;12.49;100.00;102063.81;5057345;28;46894;-70
2022/10/12 02:06:41;;;;;;;;;10.50;8.25;;;;;12.50;100.00;102062.94;5057157;28;45300;-71
2022/10/12 02:09:16;;;;;;;;;12.00;10.00;;;;;12.50;100.00;102057.63;5056395;28;45497;-71
2022/10/12 02:11:42;;;;;;;;;11.00;9.25;;;;;12.49;100.00;102057.59;5057134;28;45418;-70
2022/10/12 02:14:14;;;;;;;;;10.50;10.00;;;;;12.50;100.00;102044.38;5058941;28;46383;-71
2022/10/12 02:16:45;;;;;;;;;9.75;9.25;;;;;12.50;100.00;102048.78;5055791;28;45422;-72
2022/10/12 02:19:12;;;;;;;;;12.25;9.75;;;;;12.48;100.00;102040.81;5056000;28;45506;-70
2022/10/12 02:21:39;;;;;;;;;12.25;10.75;;;;;12.50;100.00;102047.03;5057394;28;45551;-71
2022/10/12 02:24:07;;;;;;;;;8.75;8.75;;;;;12.45;100.00;102040.75;5055177;28;61492;-71
2022/10/12 02:26:34;;;;;;;;;11.25;9.50;;;;;12.46;100.00;102041.63;5056141;28;45465;-71
2022/10/12 02:29:04;;;;;;;;;12.50;9.00;;;;;12.46;100.00;102045.16;5055453;28;45490;-70
2022/10/12 02:31:48;;;;;;;;;9.50;9.50;;;;;12.45;100.00;102032.78;5056133;28;45292;-71
2022/10/12 02:34:42;;;;;;;;;16.25;8.50;;;;;12.44;100.00;102038.97;5056965;28;46044;-71
2022/10/12 02:37:18;;;;;;;;;10.00;9.00;;;;;12.44;100.00;102038.06;5055071;28;45422;-70
2022/10/12 02:39:46;;;;;;;;;12.75;9.75;;;;;12.42;100.00;102027.44;5055573;28;45472;-70
2022/10/12 02:42:17;;;;;;;;;9.00;9.00;;;;;12.38;100.00;102012.34;5055915;28;45333;-70
2022/10/12 02:44:43;;;;;;;;;11.50;9.25;;;;;12.37;100.00;102015.84;5055368;28;46451;-72
2022/10/12 02:47:10;;;;;;;;;11.00;8.00;;;;;12.40;100.00;102022.97;5057093;28;45454;-71
2022/10/12 02:49:36;;;;;;;;;7.50;7.25;;;;;12.35;100.00;102020.19;5055487;28;49874;-71
2022/10/12 02:52:03;;;;;;;;;11.50;9.00;;;;;12.32;100.00;102023.69;5055650;28;53064;-71
2022/10/12 02:54:29;;;;;;;;;9.75;8.00;;;;;12.31;100.00;102013.06;5055546;28;46863;-71
2022/10/12 02:56:54;;;;;;;;;9.00;9.00;;;;;12.27;100.00;102008.56;5055226;28;45379;-71
2022/10/12 02:59:20;;;;;;;;;12.00;11.25;;;;;12.26;100.00;102012.97;5055077;28;48452;-71
2022/10/12 03:01:45;;;;;;;;;11.00;8.25;;;;;12.26;100.00;102017.38;5056906;28;45596;-71
2022/10/12 03:04:11;;;;;;;;;10.00;8.25;;;;;12.21;100.00;102017.25;5055878;28;60509;-71
2022/10/12 03:06:36;;;;;;;;;13.50;10.50;;;;;12.23;100.00;102017.28;5055145;28;61916;-71
2022/10/12 03:09:03;;;;;;;;;12.50;11.00;;;;;12.20;100.00;102010.16;5055122;28;45505;-70
2022/10/12 03:11:29;;;;;;;;;11.75;8.50;;;;;12.20;100.00;102012.81;5055393;28;45331;-71
2022/10/12 03:13:55;;;;;;;;;9.75;8.50;;;;;12.17;100.00;102004.78;5057120;28;46129;-71
2022/10/12 03:16:20;;;;;;;;;10.50;9.00;;;;;12.15;100.00;102003.88;5051524;28;45451;-71
2022/10/12 03:18:46;;;;;;;;;13.00;9.75;;;;;12.15;100.00;102005.63;5055511;28;45744;-72
2022/10/12 03:21:11;;;;;;;;;11.50;8.50;;;;;12.14;100.00;102004.72;5056102;28;50988;-71
2022/10/12 03:23:37;;;;;;;;;8.00;5.25;;;;;12.12;100.00;102005.53;5055169;28;45700;-71
2022/10/12 03:26:03;;;;;;;;;11.25;10.50;;;;;12.12;100.00;102010.84;5055183;28;45245;-71
2022/10/12 03:28:28;;;;;;;;;9.75;8.00;;;;;12.09;100.00;102005.47;5055041;28;45391;-71
2022/10/12 03:30:54;;;;;;;;;10.75;8.75;;;;;12.05;100.00;102005.41;5055585;28;55978;-71
2022/10/12 03:33:20;;;;;;;;;8.25;8.00;;;;;12.06;100.00;102003.66;5056129;28;49422;-72
2022/10/12 03:35:45;;;;;;;;;15.75;11.00;;;;;12.03;100.00;102008.84;5054515;28;45371;-72
2022/10/12 03:38:11;;;;;;;;;8.50;8.00;;;;;12.02;100.00;102002.66;5056441;28;45316;-71
2022/10/12 03:40:37;;;;;;;;;14.00;7.50;;;;;12.03;100.00;102006.22;5038046;28;45335;-72
2022/10/12 03:43:02;;;;;;;;;9.50;7.50;;;;;12.01;100.00;102007.94;5056069;28;45478;-70
2022/10/12 03:45:28;;;;;;;;;11.50;8.75;;;;;11.98;100.00;102008.75;5054441;28;55121;-71
2022/10/12 03:47:53;;;;;;;;;10.25;8.50;;;;;11.98;100.00;102011.38;5055642;28;45369;-71
2022/10/12 03:50:19;;;;;;;;;11.75;9.00;;;;;11.96;100.00;102006.94;5058161;28;54477;-70
2022/10/12 03:52:44;;;;;;;;;8.50;8.50;;;;;11.96;100.00;102010.47;5059328;28;46046;-71
2022/10/12 03:55:09;;;;;;;;;9.75;9.75;;;;;11.94;100.00;102012.19;5059373;28;45414;-72
2022/10/12 03:57:35;;;;;;;;;10.00;10.00;;;;;11.93;100.00;102009.50;5059071;28;52568;-71
2022/10/12 04:00:00;;;;;;;;;10.25;8.50;;;;;11.95;100.00;102015.72;5057629;28;50190;-70
2022/10/12 04:02:26;;;;;;;;;12.50;8.25;;;;;11.94;100.00;102017.50;5059454;28;46363;-71
2022/10/12 04:04:51;;;;;;;;;11.25;9.25;;;;;11.90;100.00;102014.72;5041322;28;45711;-71
2022/10/12 04:07:17;;;;;;;;;11.50;9.00;;;;;11.90;100.00;102020.03;5058850;28;55645;-70
2022/10/12 04:09:42;;;;;;;;;11.50;10.00;;;;;11.88;100.00;102008.47;5057923;28;45608;-70
2022/10/12 04:12:07;;;;;;;;;9.25;9.00;;;;;11.85;100.00;102014.59;5059296;28;45885;-71
2022/10/12 04:14:33;;;;;;;;;10.00;8.00;;;;;11.84;100.00;102018.13;5059128;28;45355;-70
2022/10/12 04:16:58;;;;;;;;;9.50;8.00;;;;;11.83;100.00;102013.69;5059148;28;45910;-71
2022/10/12 04:19:23;;;;;;;;;10.50;9.25;;;;;11.85;100.00;102021.66;5057876;28;45497;-71
2022/10/12 04:21:49;;;;;;;;;8.75;7.00;;;;;11.83;100.00;102026.91;5058487;28;52014;-71
2022/10/12 04:24:14;;;;;;;;;8.00;6.50;;;;;11.83;100.00;102029.56;5058834;28;50516;-71
2022/10/12 04:26:39;;;;;;;;;9.00;9.00;;;;;11.81;100.00;102028.59;5059200;28;45445;-71
2022/10/12 04:29:05;;;;;;;;;9.50;9.50;;;;;11.80;100.00;102026.78;5057884;28;54325;-70
2022/10/12 04:31:30;;;;;;;;;10.00;9.75;;;;;11.82;100.00;102034.81;5058039;28;46495;-70
2022/10/12 04:33:56;;;;;;;;;11.25;9.00;;;;;11.79;100.00;102031.19;5058517;28;45370;-71
2022/10/12 04:36:23;;;;;;;;;11.00;9.25;;;;;11.80;100.00;102038.28;5057678;28;45384;-71
2022/10/12 04:38:48;;;;;;;;;10.50;8.00;;;;;11.78;100.00;102037.34;5057606;28;45209;-72
2022/10/12 04:41:14;;;;;;;;;10.75;9.00;;;;;11.79;100.00;102031.19;5057821;28;63858;-71
2022/10/12 04:43:39;;;;;;;;;11.25;10.25;;;;;11.76;100.00;102023.16;5058440;28;45328;-70
2022/10/12 04:46:04;;;;;;;;;13.75;11.00;;;;;11.76;100.00;102022.28;5058124;28;53276;-71
2022/10/12 04:48:30;;;;;;;;;11.50;9.25;;;;;11.76;100.00;102025.81;5058742;28;47899;-72
2022/10/12 04:50:55;;;;;;;;;9.50;9.50;;;;;11.75;100.00;102023.13;5058522;28;46275;-71
2022/10/12 04:53:21;;;;;;;;;12.25;10.00;;;;;11.77;100.00;102030.28;5040713;28;46240;-71
2022/10/12 04:55:46;;;;;;;;;11.75;10.00;;;;;11.75;100.00;102025.78;5058230;28;54639;-71
2022/10/12 04:58:11;;;;;;;;;9.50;9.50;;;;;11.76;100.00;102022.28;5058482;28;51000;-72
2022/10/12 05:00:37;;;;;;;;;9.00;9.00;;;;;11.74;100.00;102024.91;5057516;28;46293;-70
2022/10/12 05:03:02;;;;;;;;;14.75;8.50;;;;;11.71;100.00;102016.88;5058484;28;52471;-71
2022/10/12 05:05:28;;;;;;;;;11.25;9.00;;;;;11.70;100.00;102014.19;5058271;28;45326;-71
2022/10/12 05:07:53;;;;;;;;;10.00;8.00;;;;;11.68;100.00;102013.28;5058359;28;52787;-71
2022/10/12 05:10:19;;;;;;;;;11.25;7.75;;;;;11.67;100.00;102017.66;5058178;28;46795;-70
2022/10/12 05:12:44;;;;;;;;;10.75;8.00;;;;;11.67;100.00;102016.78;5058327;28;45463;-71
2022/10/12 05:15:10;;;;;;;;;7.75;7.75;;;;;11.65;100.00;102018.47;5057754;28;54963;-71
2022/10/12 05:17:35;;;;;;;;;9.75;7.75;;;;;11.65;100.00;102024.66;5058352;28;45474;-72
2022/10/12 05:20:00;;;;;;;;;8.75;4.00;;;;;11.65;100.00;102024.66;5057362;28;58932;-71
2022/10/12 05:22:26;;;;;;;;;10.00;10.00;;;;;11.64;100.00;102035.19;5057791;28;51305;-70
2022/10/12 05:24:51;;;;;;;;;11.75;9.50;;;;;11.62;100.00;102018.41;5057738;28;45317;-71
2022/10/12 05:27:16;;;;;;;;;12.25;9.25;;;;;11.61;100.00;102019.22;5057649;28;45461;-70
2022/10/12 05:29:42;;;;;;;;;9.75;9.50;;;;;11.58;100.00;102021.81;5053250;28;55940;-71
2022/10/12 05:32:07;;;;;;;;;11.75;9.25;;;;;11.49;100.00;102012.78;5057309;28;54808;-71
2022/10/12 05:34:33;;;;;;;;;10.00;10.00;;;;;11.55;100.00;102031.44;5057574;28;49130;-71
2022/10/12 05:36:58;;;;;;;;;11.25;10.00;;;;;11.51;100.00;102029.59;5057583;28;45478;-72
2022/10/12 05:39:24;;;;;;;;;9.75;7.75;;;;;11.53;100.00;102034.91;5051094;28;46682;-70
2022/10/12 05:41:50;;;;;;;;;13.00;10.25;;;;;11.51;100.00;102031.34;5053911;28;45383;-72
2022/10/12 05:44:15;;;;;;;;;9.00;9.00;;;;;11.49;100.00;102027.75;5057834;28;45407;-71
2022/10/12 05:46:41;;;;;;;;;11.75;9.00;;;;;11.47;100.00;102018.91;5055192;28;45429;-71
2022/10/12 05:49:06;;;;;;;;;12.00;8.75;;;;;11.49;100.00;102018.06;5057040;28;46159;-71
2022/10/12 05:51:32;;;;;;;;;9.75;9.50;;;;;11.49;100.00;102026.00;5057063;28;45462;-71
2022/10/12 05:53:57;;;;;;;;;11.00;9.00;;;;;11.47;100.00;102024.19;5057225;28;45320;-73
2022/10/12 05:56:23;;;;;;;;;7.75;7.75;;;;;11.44;100.00;102019.69;5056352;28;45417;-69
2022/10/12 05:58:48;;;;;;;;;7.25;7.25;;;;;11.46;100.00;102022.41;5056732;28;62969;-71
2022/10/12 06:01:14;;;;;;;;;10.50;10.00;;;;;11.45;100.00;102021.50;5055973;28;45499;-70
2022/10/12 06:03:39;;;;;;;;;12.00;9.50;;;;;11.43;100.00;102015.25;5055283;28;45475;-73
2022/10/12 06:06:05;;;;;;;;;12.00;9.50;;;;;11.41;100.00;102022.28;5054897;28;45414;-73
2022/10/12 06:08:32;;;;;;;;;15.50;10.50;;;;;11.43;100.00;102023.19;5057297;28;45756;-72
2022/10/12 06:10:57;;;;;;;;;11.00;8.25;;;;;11.43;100.00;102023.19;5182497;22;45541;-72
2022/10/12 06:13:23;;;;;;;;;7.00;7.00;;;;;11.44;100.00;102026.75;5056520;28;45807;-73
2022/10/12 06:15:49;;;;;;;;;11.00;9.75;;;;;11.42;100.00;102016.13;5054521;28;45584;-73
2022/10/12 06:18:15;;;;;;;;;14.75;11.25;;;;;11.43;100.00;102020.56;5053886;28;46446;-72
2022/10/12 06:20:40;;;;;;;;;18.75;11.75;;;;;11.46;100.00;102027.69;5055989;28;45458;-72
2022/10/12 06:23:06;;;;;;;;;14.25;11.00;;;;;11.40;100.00;102017.84;5055910;28;45353;-72
2022/10/12 06:25:31;;;;;;;;;16.25;12.00;;;;;11.47;100.00;102029.47;5056698;28;45453;-70
2022/10/12 06:27:57;;;;;;;;;20.00;12.25;;;;;11.51;100.00;102034.00;5056236;28;63061;-72
2022/10/12 06:30:22;;;;;;;;;15.75;14.00;;;;;11.53;100.00;102040.22;5055782;28;51726;-73
2022/10/12 06:32:47;;;;;;;;;15.50;15.00;;;;;11.55;100.00;102043.78;5056958;28;45370;-72
2022/10/12 06:35:13;;;;;;;;;14.75;14.00;;;;;11.60;100.00;102049.19;5056429;28;49474;-73
2022/10/12 06:37:38;;;;;;;;;15.25;14.25;;;;;11.61;100.00;102053.63;5055347;28;45584;-73
2022/10/12 06:40:04;;;;;;;;;14.75;14.25;;;;;11.63;100.00;102052.81;5054611;28;54878;-72
2022/10/12 06:42:30;;;;;;;;;17.50;14.00;;;;;11.66;100.00;102052.88;5053246;28;45450;-72
2022/10/12 06:44:55;;;;;;;;;16.25;16.00;;;;;11.65;100.00;102052.88;5054034;28;45364;-72
2022/10/12 06:47:21;;;;;;;;;16.00;14.25;;;;;11.69;100.00;102049.44;5055694;28;46836;-72
2022/10/12 06:49:46;;;;;;;;;15.50;13.50;;;;;11.67;100.00;102049.41;5053788;28;61288;-73
2022/10/12 06:52:11;;;;;;;;;18.75;11.50;;;;;11.72;100.00;102057.47;5055435;28;45571;-73
2022/10/12 06:54:37;;;;;;;;;24.75;17.75;;;;;11.76;100.00;102059.31;5053098;28;45470;-72
2022/10/12 06:57:04;;;;;;;;;26.75;19.50;;;;;11.77;100.00;102062.03;5055755;28;46169;-72
2022/10/12 06:59:29;;;;;;;;;24.25;20.00;;;;;11.80;100.00;102059.44;5054411;28;45383;-72
2022/10/12 07:01:55;;;;;;;;;21.75;15.75;;;;;11.88;100.00;102064.97;5053859;28;45856;-73
2022/10/12 07:04:20;;;;;;;;;20.25;16.50;;;;;11.90;100.00;102070.31;5054503;28;45445;-73
2022/10/12 07:06:45;;;;;;;;;19.50;15.50;;;;;11.98;100.00;102066.09;5054306;28;45813;-72
2022/10/12 07:09:11;;;;;;;;;21.75;15.75;;;;;11.99;100.00;102070.56;5055085;28;50231;-73
2022/10/12 07:11:36;;;;;;;;;21.50;17.50;;;;;12.00;100.00;102081.16;5055664;28;45637;-72
2022/10/12 07:14:01;;;;;;;;;22.75;17.25;;;;;12.00;100.00;102069.69;5055468;28;45205;-72
2022/10/12 07:16:27;;;;;;;;;19.50;17.00;;;;;12.03;100.00;102070.63;5054996;28;57966;-72
2022/10/12 07:18:52;;;;;;;;;23.00;16.00;;;;;12.05;100.00;102076.00;5055262;28;45347;-72
2022/10/12 07:21:18;;;;;;;;;19.00;14.25;;;;;12.07;100.00;102074.25;5054107;28;45421;-73
2022/10/12 07:23:43;;;;;;;;;18.50;13.75;;;;;12.08;100.00;102073.41;5057139;28;51212;-72
2022/10/12 07:26:09;;;;;;;;;20.25;17.00;;;;;12.10;100.00;102076.09;5058773;28;46303;-71
2022/10/12 07:28:36;;;;;;;;;25.75;17.25;;;;;12.07;100.00;102074.25;5057267;28;45372;-72
2022/10/12 07:31:03;;;;;;;;;19.25;16.00;;;;;12.13;100.00;102078.81;5056318;28;45726;-72
2022/10/12 07:33:33;;;;;;;;;25.00;18.75;;;;;12.13;100.00;102069.13;5059021;28;45497;-73
2022/10/12 07:35:58;;;;;;;;;25.00;18.75;;;;;12.19;100.00;102071.00;5058333;28;45949;-72
2022/10/12 07:38:23;;;;;;;;;21.50;19.50;;;;;12.22;100.00;102079.03;5058123;28;45529;-72
2022/10/12 07:40:49;;;;;;;;;27.75;20.75;;;;;12.22;100.00;102079.03;5059093;28;45394;-72
2022/10/12 07:43:14;;;;;;;;;27.00;20.25;;;;;12.27;100.00;102082.69;5057325;28;45546;-73
2022/10/12 07:45:40;;;;;;;;;21.00;20.50;;;;;12.29;100.00;102078.31;5056857;28;45805;-73
2022/10/12 07:48:05;;;;;;;;;18.50;16.50;;;;;12.31;100.00;102085.47;5058705;28;45529;-73
2022/10/12 07:50:30;;;;;;;;;20.00;19.50;;;;;12.29;100.00;102089.81;5058698;28;45171;-73
2022/10/12 07:52:56;;;;;;;;;26.00;18.75;;;;;12.36;100.00;102092.59;5058547;28;45773;-73
2022/10/12 07:55:21;;;;;;;;;25.25;19.00;;;;;12.36;100.00;102093.53;5056797;28;58524;-72
2022/10/12 07:57:47;;;;;;;;;30.75;26.50;;;;;12.40;100.00;102091.81;5057051;28;54207;-72
2022/10/12 08:00:12;;;;;;;;;27.75;24.00;;;;;12.42;100.00;102091.03;5054731;28;56136;-72
2022/10/12 08:02:38;;;;;;;;;24.00;16.00;;;;;12.48;100.00;102095.56;5056332;28;45444;-72
2022/10/12 08:05:04;;;;;;;;;25.50;19.25;;;;;12.50;100.00;102088.53;5057434;28;47423;-74
2022/10/12 08:07:29;;;;;;;;;21.25;19.25;;;;;12.54;100.00;102104.53;5057302;28;45476;-73
2022/10/12 08:09:54;;;;;;;;;20.75;17.50;;;;;12.57;100.00;102103.72;5057595;28;54385;-73
2022/10/12 08:12:20;;;;;;;;;27.25;21.50;;;;;12.57;100.00;102101.97;5058165;28;45510;-73
2022/10/12 08:14:45;;;;;;;;;21.75;18.00;;;;;12.61;100.00;102094.06;5058076;28;46409;-73
2022/10/12 08:17:11;;;;;;;;;27.00;21.25;;;;;12.66;100.00;102109.22;5058220;28;45406;-73
2022/10/12 08:19:36;;;;;;;;;23.25;20.25;;;;;12.70;100.00;102105.78;5056527;28;45948;-72
2022/10/12 08:22:02;;;;;;;;;24.25;19.50;;;;;12.76;100.00;102105.03;5057681;28;45460;-73
2022/10/12 08:24:27;;;;;;;;;21.50;17.50;;;;;12.79;100.00;102106.00;5057925;28;46657;-72
2022/10/12 08:26:53;;;;;;;;;17.00;13.00;;;;;12.81;100.00;102098.06;5057766;28;45299;-73
2022/10/12 08:29:18;;;;;;;;;20.00;18.25;;;;;12.85;100.00;102100.84;5057717;28;45355;-73
2022/10/12 08:31:43;;;;;;;;;24.75;20.00;;;;;12.89;100.00;102095.56;5057797;28;45471;-73
2022/10/12 08:34:09;;;;;;;;;20.25;16.50;;;;;12.94;100.00;102097.47;5057027;28;45514;-73
2022/10/12 08:36:34;;;;;;;;;20.00;16.50;;;;;12.99;100.00;102105.53;5057239;28;46066;-73
2022/10/12 08:39:00;;;;;;;;;19.25;18.00;;;;;13.01;100.00;102104.72;5058000;28;45232;-73
2022/10/12 08:41:34;;;;;;;;;17.75;15.75;;;;;13.05;100.00;102103.03;5055689;28;45465;-73
2022/10/12 08:44:22;;;;;;;;;13.00;11.50;;;;;13.09;100.00;102100.44;5056604;28;46079;-73
2022/10/12 08:46:48;;;;;;;;;19.75;17.75;;;;;13.14;100.00;102097.91;5056317;28;45631;-73
2022/10/12 08:49:19;;;;;;;;;17.50;16.50;;;;;13.17;100.00;102099.72;5055040;28;45522;-74
2022/10/12 08:51:49;;;;;;;;;23.75;18.25;;;;;13.22;100.00;102100.75;5054601;28;45280;-73
2022/10/12 08:54:17;;;;;;;;;22.00;17.75;;;;;13.29;100.00;102106.22;5050167;28;47252;-73
2022/10/12 08:56:43;;;;;;;;;18.25;16.50;;;;;13.34;100.00;102104.53;5057612;28;45403;-73
2022/10/12 08:59:16;;;;;;;;;20.25;17.75;;;;;13.34;100.00;102099.22;5056090;28;45528;-73
2022/10/12 09:02:00;;;;;;;;;24.25;17.00;;;;;13.42;100.00;102107.34;5056177;28;45394;-73
2022/10/12 09:05:03;;;;;;;;;21.50;18.25;;;;;13.46;100.00;102097.69;5047647;28;46591;-73
2022/10/12 09:07:32;;;;;;;;;24.00;19.75;;;;;13.48;100.00;102083.59;5050996;28;45517;-73
2022/10/12 09:10:35;;;;;;;;;19.25;19.00;;;;;13.61;100.00;102097.97;5055174;28;45495;-73
2022/10/12 09:13:19;;;;;;;;;14.25;13.25;;;;;13.68;100.00;102091.03;5054256;28;45538;-72
2022/10/12 09:15:52;;;;;;;;;24.50;19.50;;;;;13.77;100.00;102093.84;5056002;28;45656;-73
2022/10/12 09:18:21;;;;;;;;;24.50;23.25;;;;;13.82;100.00;102098.38;5056797;28;45470;-73
2022/10/12 09:20:49;;;;;;;;;30.25;22.00;;;;;13.92;100.00;102096.78;5055057;28;45564;-73
2022/10/12 09:23:43;;;;;;;;;22.00;20.25;;;;;14.02;100.00;102092.53;5056953;28;45751;-73
2022/10/12 09:26:12;;;;;;;;;20.75;17.25;;;;;14.09;100.00;102089.09;5055328;28;45909;-74
2022/10/12 09:28:43;;;;;;;;;25.75;21.75;;;;;14.13;100.00;102089.19;5056534;28;45537;-73
2022/10/12 09:31:08;;;;;;;;;26.00;20.25;;;;;14.23;100.00;102092.00;5057168;28;45947;-72
2022/10/12 09:33:44;;;;;;;;;27.50;20.75;;;;;14.30;100.00;102081.47;5055911;28;45415;-73
2022/10/12 09:36:13;;;;;;;;;26.50;21.25;;;;;14.37;100.00;102080.69;5056348;28;46536;-74
2022/10/12 09:38:38;;;;;;;;;33.50;22.50;;;;;14.42;100.00;102075.44;5055392;28;45489;-73
2022/10/12 09:41:04;;;;;;;;;41.50;26.75;;;;;14.49;100.00;102074.72;5055339;28;57888;-74
2022/10/12 09:43:30;;;;;;;;;29.75;23.75;;;;;14.56;100.00;102073.03;5056358;28;55152;-74
2022/10/12 09:45:57;;;;;;;;;24.00;22.00;;;;;14.63;100.00;102067.81;5052916;28;48531;-72
2022/10/12 09:48:23;;;;;;;;;25.25;20.75;;;;;14.70;100.00;102081.19;5054593;28;45549;-73
2022/10/12 09:50:57;;;;;;;;;21.25;19.00;;;;;14.72;100.00;102058.19;5056828;28;45305;-74
2022/10/12 09:53:27;;;;;;;;;30.00;22.00;;;;;14.81;100.00;102061.88;5055341;28;45325;-73
2022/10/12 09:55:56;;;;;;;;;23.00;20.50;;;;;14.88;100.00;102066.41;5056939;28;45593;-73
2022/10/12 09:58:21;;;;;;;;;22.25;22.25;;;;;14.94;100.00;102066.47;5054265;28;45565;-73
2022/10/12 10:01:11;;;;;;;;;24.25;21.75;;;;;15.04;100.00;102059.50;5056415;28;51680;-73
2022/10/12 10:03:36;;;;;;;;;23.75;20.25;;;;;15.12;100.00;102063.13;5052763;28;45508;-73
2022/10/12 10:06:03;;;;;;;;;21.25;18.75;;;;;15.18;100.00;102060.56;5071344;28;57392;-73
2022/10/12 10:08:38;;;;;;;;;27.75;20.50;;;;;15.24;100.00;102048.22;5056293;28;45493;-73
2022/10/12 10:11:04;;;;;;;;;21.00;21.00;;;;;15.27;100.00;102048.25;5056217;28;45560;-73
2022/10/12 10:13:30;;;;;;;;;25.00;21.50;;;;;15.40;100.00;102050.16;5055209;28;45561;-74
2022/10/12 10:16:09;;;;;;;;;28.75;22.75;;;;;15.46;100.00;102042.25;5054817;28;47692;-72
2022/10/12 10:18:38;;;;;;;;;31.00;25.75;;;;;15.53;100.00;102045.84;5056633;28;45338;-73
2022/10/12 10:21:06;;;;;;;;;27.25;25.00;;;;;15.60;100.00;102047.69;5054656;28;45501;-73
2022/10/12 10:23:53;;;;;;;;;23.00;21.00;;;;;15.69;100.00;102039.84;5055123;28;45347;-73
2022/10/12 10:26:21;;;;;;;;;23.25;21.25;;;;;15.75;100.00;102039.00;5049532;28;46506;-72
2022/10/12 10:28:48;;;;;;;;;23.00;23.00;;;;;15.83;100.00;102040.84;5054587;28;45387;-69
2022/10/12 10:31:15;;;;;;;;;22.75;19.00;;;;;15.89;100.00;102032.91;5051047;28;45980;-72
2022/10/12 10:33:41;;;;;;;;;23.00;20.33;;;;;15.94;100.00;102038.28;5055005;28;45579;-71
2022/10/12 10:36:21;;;;;;;;;23.33;19.33;;;;;16.03;100.00;102040.09;5056013;28;46328;-70
2022/10/12 10:38:57;;;;;;;;;27.00;20.00;;;;;16.10;100.00;102042.84;5054555;28;45257;-72
2022/10/12 10:41:36;;;;;;;;;22.33;21.00;;;;;16.16;100.00;102032.25;5050227;28;45510;-73
2022/10/12 10:44:03;;;;;;;;;24.67;20.67;;;;;16.24;100.00;102030.53;5053932;28;45553;-72
2022/10/12 10:46:31;;;;;;;;;25.00;19.67;;;;;16.30;100.00;102026.09;5053673;28;45626;-72
2022/10/12 10:49:05;;;;;;;;;17.67;17.00;;;;;16.39;100.00;102026.16;5055355;28;46854;-70
2022/10/12 10:51:47;;;;;;;;;24.00;18.67;;;;;16.48;100.00;102026.22;5055664;28;45668;-71
2022/10/12 10:54:27;;;;;;;;;22.00;16.00;;;;;16.55;100.00;102017.38;5054619;28;45575;-70
2022/10/12 10:57:17;;;;;;;;;19.67;16.33;;;;;16.71;100.00;102031.69;5048490;28;45704;-71
2022/10/12 10:59:55;;;;;;;;;20.67;16.00;;;;;16.90;100.00;102030.03;5061069;28;45531;-71
2022/10/12 11:02:40;;;;;;;;;21.00;17.67;;;;;17.08;100.00;102024.75;5061666;28;45449;-72
2022/10/12 11:05:11;;;;;;;;;18.00;16.33;;;;;17.32;100.00;102023.06;5062512;28;45445;-71
2022/10/12 11:07:51;;;;;;;;;19.33;16.33;;;;;17.56;100.00;102028.41;5062172;28;47851;-70
2022/10/12 11:10:32;;;;;;;;;17.67;15.67;;;;;17.74;100.00;102023.13;5062282;28;45477;-71
2022/10/12 11:13:22;;;;;;;;;17.33;12.67;;;;;17.95;100.00;102027.59;5061377;28;45178;-72